createdAt,value
2024-05-09T00:01:11.014Z,92.40
2024-05-09T00:06:13.047Z,92.20
2024-05-09T00:11:16.303Z,92.30
2024-05-09T00:16:18.193Z,92.80
2024-05-09T00:21:20.674Z,93.00
2024-05-09T00:26:22.749Z,93.20
2024-05-09T00:31:25.654Z,93.60
2024-05-09T00:36:28.036Z,93.60
2024-05-09T00:41:29.969Z,93.30
2024-05-09T00:46:31.932Z,93.00
2024-05-09T00:51:33.957Z,93.30
2024-05-09T00:56:35.924Z,93.40
2024-05-09T01:01:37.992Z,93.30
2024-05-09T01:06:40.053Z,93.70
2024-05-09T01:11:42.247Z,93.70
2024-05-09T01:16:44.277Z,93.50
2024-05-09T01:21:46.215Z,93.30
2024-05-09T01:26:48.574Z,93.00
2024-05-09T01:31:54.728Z,93.00
2024-05-09T01:36:56.717Z,92.70
2024-05-09T01:41:58.566Z,93.70
2024-05-09T01:47:00.474Z,93.70
2024-05-09T01:52:02.831Z,93.20
2024-05-09T01:57:05.077Z,93.50
2024-05-09T02:02:07.188Z,94.00
2024-05-09T02:07:09.144Z,93.60
2024-05-09T02:12:11.243Z,94.00
2024-05-09T02:17:13.306Z,94.30
2024-05-09T02:22:15.240Z,94.00
2024-05-09T02:27:17.223Z,94.10
2024-05-09T02:32:19.204Z,94.10
2024-05-09T02:37:21.169Z,94.10
2024-05-09T02:42:23.200Z,94.00
2024-05-09T02:47:25.228Z,94.00
2024-05-09T02:52:27.210Z,94.20
2024-05-09T02:57:29.095Z,94.00
2024-05-09T03:02:31.963Z,94.00
2024-05-09T03:07:33.891Z,94.40
2024-05-09T03:12:37.983Z,93.50
2024-05-09T03:17:41.584Z,93.70
2024-05-09T03:22:43.679Z,93.70
2024-05-09T03:27:45.634Z,93.90
2024-05-09T03:32:47.807Z,94.10
2024-05-09T03:37:49.898Z,94.50
2024-05-09T03:42:51.949Z,94.50
2024-05-09T03:47:54.059Z,94.50
2024-05-09T03:52:56.181Z,94.50
2024-05-09T03:57:58.294Z,94.80
2024-05-09T04:03:00.405Z,94.60
2024-05-09T04:08:02.645Z,94.40
2024-05-09T04:13:05.006Z,95.10
2024-05-09T04:18:07.625Z,95.40
2024-05-09T04:23:14.856Z,95.00
2024-05-09T04:28:17.183Z,95.20
2024-05-09T04:33:20.905Z,95.00
2024-05-09T04:38:23.291Z,94.90
2024-05-09T04:43:25.426Z,95.30
2024-05-09T04:48:27.675Z,95.70
2024-05-09T04:53:29.857Z,95.50
2024-05-09T04:58:32.121Z,95.50
2024-05-09T05:03:34.285Z,95.90
2024-05-09T05:08:36.520Z,95.90
2024-05-09T05:13:41.461Z,95.70
2024-05-09T05:18:44.780Z,95.30
2024-05-09T05:23:47.371Z,94.70
2024-05-09T05:28:49.538Z,94.00
2024-05-09T05:33:51.614Z,93.80
2024-05-09T05:38:53.839Z,93.70
2024-05-09T05:43:56.108Z,93.50
2024-05-09T05:48:58.496Z,93.70
2024-05-09T05:54:00.580Z,93.60
2024-05-09T05:59:02.742Z,93.00
2024-05-09T06:04:05.101Z,92.10
2024-05-09T06:09:07.333Z,91.30
2024-05-09T06:14:09.692Z,90.40
2024-05-09T06:19:12.219Z,89.60
2024-05-09T06:24:14.493Z,87.20
2024-05-09T06:29:16.722Z,86.30
2024-05-09T06:34:19.772Z,85.00
2024-05-09T06:39:22.197Z,84.90
2024-05-09T06:44:24.381Z,83.20
2024-05-09T06:49:29.281Z,82.30
2024-05-09T06:54:31.829Z,80.80
2024-05-09T06:59:34.339Z,78.00
2024-05-09T07:04:37.021Z,78.30
2024-05-09T07:09:39.219Z,77.20
2024-05-09T07:14:41.994Z,74.00
2024-05-09T07:19:44.336Z,72.70
2024-05-09T07:24:46.681Z,72.20
2024-05-09T07:29:49.427Z,70.50
2024-05-09T07:34:51.985Z,70.10
2024-05-09T07:39:54.591Z,69.00
2024-05-09T07:45:06.380Z,66.10
2024-05-09T07:55:24.570Z,65.10
2024-05-09T08:00:31.129Z,60.90
2024-05-09T08:05:34.730Z,60.80
2024-05-09T08:10:37.407Z,59.40
2024-05-09T08:15:39.722Z,58.30
2024-05-09T08:20:42.545Z,59.40
2024-05-09T08:25:44.713Z,58.10
2024-05-09T08:30:47.323Z,56.50
2024-05-09T08:35:49.597Z,56.10
2024-05-09T08:40:52.295Z,54.30
2024-05-09T08:45:54.599Z,54.70
2024-05-09T08:50:59.502Z,52.40
2024-05-09T08:56:02.734Z,52.40
2024-05-09T09:01:05.324Z,51.70
2024-05-09T09:06:10.776Z,51.90
2024-05-09T09:11:13.193Z,50.70
2024-05-09T09:16:16.584Z,50.30
2024-05-09T09:21:19.009Z,49.20
2024-05-09T09:26:22.858Z,50.10
2024-05-09T09:31:25.247Z,48.00
2024-05-09T09:36:30.447Z,44.60
2024-05-09T09:41:34.604Z,46.20
2024-05-09T09:46:37.751Z,45.80
2024-05-09T09:51:44.027Z,44.60
2024-05-09T09:56:50.201Z,42.90
2024-05-09T10:01:53.008Z,42.30
2024-05-09T10:07:01.687Z,41.90
2024-05-09T10:12:11.877Z,43.40
2024-05-09T10:17:14.573Z,41.20
2024-05-09T10:22:31.276Z,41.30
2024-05-09T10:27:33.835Z,39.60
2024-05-09T10:32:40.462Z,39.30
2024-05-09T10:37:43.101Z,40.40
2024-05-09T10:42:45.493Z,41.70
2024-05-09T10:47:48.410Z,38.70
2024-05-09T10:52:53.888Z,40.10
2024-05-09T10:57:57.637Z,38.90
2024-05-09T11:03:00.558Z,38.50
2024-05-09T11:08:03.447Z,38.50
2024-05-09T11:13:06.026Z,39.60
2024-05-09T11:18:23.618Z,38.50
2024-05-09T11:23:30.675Z,37.60
2024-05-09T11:28:33.169Z,38.50
2024-05-09T11:33:39.556Z,40.40
2024-05-09T11:38:43.158Z,41.80
2024-05-09T11:43:45.510Z,41.80
2024-05-09T11:48:48.483Z,39.80
2024-05-09T11:53:51.765Z,38.90
2024-05-09T11:58:54.330Z,39.40
2024-05-09T12:03:56.937Z,35.00
2024-05-09T12:08:59.852Z,33.50
2024-05-09T12:14:02.598Z,35.30
2024-05-09T12:19:05.353Z,35.80
2024-05-09T12:24:07.971Z,35.80
2024-05-09T12:29:10.555Z,35.50
2024-05-09T12:34:13.621Z,34.80
2024-05-09T12:39:16.328Z,32.80
2024-05-09T12:44:19.041Z,36.50
2024-05-09T12:49:24.608Z,36.20
2024-05-09T12:54:27.275Z,33.70
2024-05-09T12:59:29.511Z,33.00
2024-05-09T13:04:32.053Z,33.00
2024-05-09T13:09:35.337Z,34.50
2024-05-09T13:14:37.641Z,35.00
2024-05-09T13:19:40.209Z,33.70
2024-05-09T13:24:42.555Z,32.50
2024-05-09T13:29:44.723Z,32.10
2024-05-09T13:34:47.121Z,33.40
2024-05-09T13:39:49.629Z,32.60
2024-05-09T13:44:51.979Z,33.70
2024-05-09T13:49:54.483Z,34.80
2024-05-09T13:54:57.083Z,33.80
2024-05-09T13:59:59.337Z,32.20
2024-05-09T14:05:01.950Z,32.00
2024-05-09T14:10:09.022Z,31.70
2024-05-09T14:15:13.822Z,32.70
2024-05-09T14:20:23.970Z,33.40
2024-05-09T14:25:36.776Z,33.00
2024-05-09T14:30:42.965Z,35.20
2024-05-09T14:35:45.523Z,34.40
2024-05-09T14:40:49.369Z,34.10
2024-05-09T14:45:51.770Z,33.00
2024-05-09T14:50:54.197Z,32.80
2024-05-09T14:55:57.412Z,31.10
2024-05-09T15:00:59.949Z,29.70
2024-05-09T15:06:02.789Z,29.90
2024-05-09T15:11:05.412Z,31.00
2024-05-09T15:16:08.092Z,30.20
2024-05-09T15:21:10.468Z,29.60
2024-05-09T15:26:12.640Z,30.20
2024-05-09T15:31:14.747Z,28.90
2024-05-09T15:36:17.239Z,29.70
2024-05-09T15:41:19.489Z,29.90
2024-05-09T15:46:21.894Z,28.00
2024-05-09T15:51:24.123Z,28.70
2024-05-09T15:56:26.345Z,26.90
2024-05-09T16:01:28.912Z,27.90
2024-05-09T16:06:33.247Z,28.90
2024-05-09T16:11:35.891Z,27.50
2024-05-09T16:16:38.562Z,28.60
2024-05-09T16:21:41.073Z,28.40
2024-05-09T16:26:43.835Z,27.10
2024-05-09T16:31:45.872Z,27.80
2024-05-09T16:36:48.030Z,28.00
2024-05-09T16:41:53.581Z,30.90
2024-05-09T16:46:56.824Z,30.00
2024-05-09T16:51:59.325Z,32.50
2024-05-09T16:57:01.588Z,33.00
2024-05-09T17:02:05.469Z,32.60
2024-05-09T17:07:08.120Z,33.70
2024-05-09T17:12:10.868Z,33.60
2024-05-09T17:17:13.024Z,35.00
2024-05-09T17:22:15.621Z,40.50
2024-05-09T17:27:18.142Z,41.20
2024-05-09T17:32:20.391Z,40.50
2024-05-09T17:37:22.800Z,36.90
2024-05-09T17:42:25.416Z,42.20
2024-05-09T17:47:27.641Z,44.90
2024-05-09T17:52:30.247Z,44.70
2024-05-09T17:57:32.596Z,46.90
2024-05-09T18:02:36.223Z,46.00
2024-05-09T18:07:38.517Z,48.20
2024-05-09T18:12:41.120Z,50.60
2024-05-09T18:17:43.908Z,51.10
2024-05-09T18:22:45.917Z,52.20
2024-05-09T18:27:48.261Z,53.20
2024-05-09T18:32:50.587Z,54.90
2024-05-09T18:37:53.417Z,55.70
2024-05-09T18:42:55.709Z,57.50
2024-05-09T18:47:58.335Z,57.80
2024-05-09T18:53:00.688Z,58.90
2024-05-09T18:58:05.821Z,60.40
2024-05-09T19:03:10.286Z,60.90
2024-05-09T19:08:15.609Z,62.00
2024-05-09T19:13:18.086Z,62.70
2024-05-09T19:18:20.319Z,64.40
2024-05-09T19:23:22.856Z,64.80
2024-05-09T19:28:25.791Z,66.00
2024-05-09T19:33:28.411Z,66.80
2024-05-09T19:38:30.522Z,67.00
2024-05-09T19:43:35.870Z,68.00
2024-05-09T19:48:38.428Z,68.50
2024-05-09T19:53:41.091Z,69.50
2024-05-09T19:58:43.437Z,68.60
2024-05-09T20:03:45.668Z,70.50
2024-05-09T20:08:47.893Z,70.30
2024-05-09T20:13:49.924Z,70.80
2024-05-09T20:18:52.160Z,70.10
2024-05-09T20:24:01.679Z,71.20
2024-05-09T20:29:03.976Z,71.50
2024-05-09T20:34:06.028Z,72.00
2024-05-09T20:39:07.999Z,72.70
2024-05-09T20:44:09.917Z,73.10
2024-05-09T20:49:12.585Z,73.70
2024-05-09T20:54:14.971Z,74.30
2024-05-09T20:59:16.940Z,74.60
2024-05-09T21:04:19.072Z,75.90
2024-05-09T21:09:25.591Z,75.50
2024-05-09T21:14:27.574Z,75.70
2024-05-09T21:19:29.680Z,75.90
2024-05-09T21:24:31.773Z,76.20
2024-05-09T21:29:33.776Z,76.40
2024-05-09T21:34:35.857Z,76.50
2024-05-09T21:39:37.848Z,77.20
2024-05-09T21:44:39.903Z,77.60
2024-05-09T21:49:42.284Z,77.80
2024-05-09T21:54:44.263Z,78.20
2024-05-09T21:59:46.315Z,78.60
2024-05-09T22:04:48.328Z,78.90
2024-05-09T22:09:50.618Z,79.00
2024-05-09T22:14:52.840Z,78.90
2024-05-09T22:19:54.805Z,79.00
2024-05-09T22:24:57.284Z,79.20
2024-05-09T22:29:59.296Z,80.10
2024-05-09T22:35:01.400Z,80.70
2024-05-09T22:40:06.822Z,81.20
2024-05-09T22:45:10.001Z,81.30
2024-05-09T22:50:16.227Z,81.50
2024-05-09T22:55:24.403Z,81.50
2024-05-09T23:00:31.450Z,81.90
2024-05-09T23:05:35.056Z,82.10
2024-05-09T23:10:38.128Z,82.70
2024-05-09T23:15:40.529Z,82.70
2024-05-09T23:20:42.496Z,83.20
2024-05-09T23:25:44.906Z,82.80
2024-05-09T23:30:46.936Z,82.40
2024-05-09T23:35:48.897Z,82.50
2024-05-09T23:40:51.456Z,82.70
2024-05-09T23:45:53.566Z,83.00
2024-05-09T23:50:55.487Z,82.90
2024-05-09T23:55:57.416Z,83.80
